sensor_id;sensor_type;location;lat;lon;timestamp;P1;durP1;ratioP1;P2;durP2;ratioP2
7683;SDS011;3884;48.616;12.872;2024-01-07T00:01:30;40.00;;;26.53;;
7683;SDS011;3884;48.616;12.872;2024-01-07T00:03:57;38.50;;;27.07;;
7683;SDS011;3884;48.616;12.872;2024-01-07T00:06:26;38.70;;;26.40;;
7683;SDS011;3884;48.616;12.872;2024-01-07T00:08:52;40.57;;;29.93;;
7683;SDS011;3884;48.616;12.872;2024-01-07T00:11:19;54.67;;;40.87;;
7683;SDS011;3884;48.616;12.872;2024-01-07T00:13:46;50.77;;;38.87;;
7683;SDS011;3884;48.616;12.872;2024-01-07T00:16:13;45.80;;;35.47;;
7683;SDS011;3884;48.616;12.872;2024-01-07T00:18:40;44.33;;;31.67;;
7683;SDS011;3884;48.616;12.872;2024-01-07T00:21:07;37.07;;;27.67;;
7683;SDS011;3884;48.616;12.872;2024-01-07T00:23:35;40.13;;;26.10;;
7683;SDS011;3884;48.616;12.872;2024-01-07T00:26:02;39.53;;;28.10;;
7683;SDS011;3884;48.616;12.872;2024-01-07T00:28:29;41.20;;;26.87;;
7683;SDS011;3884;48.616;12.872;2024-01-07T00:30:56;42.10;;;27.93;;
7683;SDS011;3884;48.616;12.872;2024-01-07T00:33:23;39.40;;;26.57;;
7683;SDS011;3884;48.616;12.872;2024-01-07T00:35:51;41.77;;;27.37;;
7683;SDS011;3884;48.616;12.872;2024-01-07T00:38:18;37.77;;;26.07;;
7683;SDS011;3884;48.616;12.872;2024-01-07T00:40:47;41.30;;;26.93;;
7683;SDS011;3884;48.616;12.872;2024-01-07T00:43:13;41.30;;;27.10;;
7683;SDS011;3884;48.616;12.872;2024-01-07T00:45:40;39.53;;;26.27;;
7683;SDS011;3884;48.616;12.872;2024-01-07T00:48:07;44.03;;;28.27;;
7683;SDS011;3884;48.616;12.872;2024-01-07T00:50:34;40.27;;;26.93;;
7683;SDS011;3884;48.616;12.872;2024-01-07T00:53:01;42.13;;;27.60;;
7683;SDS011;3884;48.616;12.872;2024-01-07T00:55:27;39.73;;;27.10;;
7683;SDS011;3884;48.616;12.872;2024-01-07T00:57:56;36.13;;;25.03;;
7683;SDS011;3884;48.616;12.872;2024-01-07T01:00:23;42.00;;;27.23;;
7683;SDS011;3884;48.616;12.872;2024-01-07T01:02:50;45.37;;;27.93;;
7683;SDS011;3884;48.616;12.872;2024-01-07T01:05:16;41.70;;;26.97;;
7683;SDS011;3884;48.616;12.872;2024-01-07T01:07:43;42.83;;;27.27;;
7683;SDS011;3884;48.616;12.872;2024-01-07T01:10:10;43.03;;;27.33;;
7683;SDS011;3884;48.616;12.872;2024-01-07T01:12:38;43.60;;;27.40;;
7683;SDS011;3884;48.616;12.872;2024-01-07T01:15:07;41.80;;;27.30;;
7683;SDS011;3884;48.616;12.872;2024-01-07T01:17:34;41.07;;;27.40;;
7683;SDS011;3884;48.616;12.872;2024-01-07T01:20:01;42.97;;;26.67;;
7683;SDS011;3884;48.616;12.872;2024-01-07T01:22:29;48.80;;;28.23;;
7683;SDS011;3884;48.616;12.872;2024-01-07T01:24:56;45.37;;;28.80;;
7683;SDS011;3884;48.616;12.872;2024-01-07T01:27:23;50.50;;;28.43;;
7683;SDS011;3884;48.616;12.872;2024-01-07T01:29:50;43.70;;;27.83;;
7683;SDS011;3884;48.616;12.872;2024-01-07T01:32:19;46.20;;;27.97;;
7683;SDS011;3884;48.616;12.872;2024-01-07T01:34:45;47.53;;;28.57;;
7683;SDS011;3884;48.616;12.872;2024-01-07T01:37:12;45.70;;;27.27;;
7683;SDS011;3884;48.616;12.872;2024-01-07T01:39:40;42.97;;;26.63;;
7683;SDS011;3884;48.616;12.872;2024-01-07T01:42:07;47.90;;;28.37;;
7683;SDS011;3884;48.616;12.872;2024-01-07T01:44:34;47.87;;;29.20;;
7683;SDS011;3884;48.616;12.872;2024-01-07T01:47:01;45.47;;;27.23;;
7683;SDS011;3884;48.616;12.872;2024-01-07T01:49:29;43.97;;;26.83;;
7683;SDS011;3884;48.616;12.872;2024-01-07T01:51:56;40.10;;;26.33;;
7683;SDS011;3884;48.616;12.872;2024-01-07T01:54:24;43.83;;;26.93;;
7683;SDS011;3884;48.616;12.872;2024-01-07T01:56:51;42.77;;;26.03;;
7683;SDS011;3884;48.616;12.872;2024-01-07T01:59:18;45.97;;;28.17;;
7683;SDS011;3884;48.616;12.872;2024-01-07T02:01:45;46.13;;;29.67;;
7683;SDS011;3884;48.616;12.872;2024-01-07T02:04:13;59.50;;;36.07;;
7683;SDS011;3884;48.616;12.872;2024-01-07T02:06:42;40.63;;;26.97;;
7683;SDS011;3884;48.616;12.872;2024-01-07T02:09:11;45.40;;;29.40;;
7683;SDS011;3884;48.616;12.872;2024-01-07T02:11:38;45.13;;;26.40;;
7683;SDS011;3884;48.616;12.872;2024-01-07T02:14:05;42.07;;;29.47;;
7683;SDS011;3884;48.616;12.872;2024-01-07T02:16:32;43.13;;;27.57;;
7683;SDS011;3884;48.616;12.872;2024-01-07T02:18:59;46.77;;;29.30;;
7683;SDS011;3884;48.616;12.872;2024-01-07T02:21:26;39.60;;;25.17;;
7683;SDS011;3884;48.616;12.872;2024-01-07T02:23:55;40.13;;;27.77;;
7683;SDS011;3884;48.616;12.872;2024-01-07T02:26:23;39.27;;;25.07;;
7683;SDS011;3884;48.616;12.872;2024-01-07T02:28:50;37.63;;;27.70;;
7683;SDS011;3884;48.616;12.872;2024-01-07T02:31:17;33.30;;;22.17;;
7683;SDS011;3884;48.616;12.872;2024-01-07T02:33:44;34.83;;;23.57;;
7683;SDS011;3884;48.616;12.872;2024-01-07T02:36:15;34.67;;;26.03;;
7683;SDS011;3884;48.616;12.872;2024-01-07T02:38:41;31.00;;;20.00;;
7683;SDS011;3884;48.616;12.872;2024-01-07T02:41:08;34.80;;;21.30;;
7683;SDS011;3884;48.616;12.872;2024-01-07T02:43:37;36.87;;;25.83;;
7683;SDS011;3884;48.616;12.872;2024-01-07T02:46:04;28.37;;;19.20;;
7683;SDS011;3884;48.616;12.872;2024-01-07T02:48:31;25.83;;;18.07;;
7683;SDS011;3884;48.616;12.872;2024-01-07T02:50:58;26.93;;;17.97;;
7683;SDS011;3884;48.616;12.872;2024-01-07T02:53:25;28.53;;;17.57;;
7683;SDS011;3884;48.616;12.872;2024-01-07T02:55:52;26.60;;;18.60;;
7683;SDS011;3884;48.616;12.872;2024-01-07T02:58:19;22.73;;;17.00;;
7683;SDS011;3884;48.616;12.872;2024-01-07T03:00:48;25.10;;;15.60;;
7683;SDS011;3884;48.616;12.872;2024-01-07T03:03:16;21.43;;;13.63;;
7683;SDS011;3884;48.616;12.872;2024-01-07T03:05:42;20.23;;;14.00;;
7683;SDS011;3884;48.616;12.872;2024-01-07T03:08:10;21.37;;;14.97;;
7683;SDS011;3884;48.616;12.872;2024-01-07T03:10:37;19.73;;;13.40;;
7683;SDS011;3884;48.616;12.872;2024-01-07T03:13:04;22.60;;;14.90;;
7683;SDS011;3884;48.616;12.872;2024-01-07T03:15:31;21.23;;;14.63;;
7683;SDS011;3884;48.616;12.872;2024-01-07T03:17:59;18.23;;;14.27;;
7683;SDS011;3884;48.616;12.872;2024-01-07T03:20:26;18.70;;;14.27;;
7683;SDS011;3884;48.616;12.872;2024-01-07T03:23:01;18.10;;;13.50;;
7683;SDS011;3884;48.616;12.872;2024-01-07T03:25:28;17.47;;;12.57;;
7683;SDS011;3884;48.616;12.872;2024-01-07T03:27:55;15.57;;;12.17;;
7683;SDS011;3884;48.616;12.872;2024-01-07T03:30:22;18.50;;;12.83;;
7683;SDS011;3884;48.616;12.872;2024-01-07T03:32:50;17.50;;;12.67;;
7683;SDS011;3884;48.616;12.872;2024-01-07T03:35:19;18.23;;;12.40;;
7683;SDS011;3884;48.616;12.872;2024-01-07T03:37:47;15.80;;;11.07;;
7683;SDS011;3884;48.616;12.872;2024-01-07T03:40:13;16.17;;;12.03;;
7683;SDS011;3884;48.616;12.872;2024-01-07T03:42:41;12.50;;;9.10;;
7683;SDS011;3884;48.616;12.872;2024-01-07T03:45:08;13.67;;;9.30;;
7683;SDS011;3884;48.616;12.872;2024-01-07T03:47:35;12.93;;;9.20;;
7683;SDS011;3884;48.616;12.872;2024-01-07T03:50:03;12.80;;;9.70;;
7683;SDS011;3884;48.616;12.872;2024-01-07T03:52:31;14.00;;;10.80;;
7683;SDS011;3884;48.616;12.872;2024-01-07T03:55:00;17.17;;;11.17;;
7683;SDS011;3884;48.616;12.872;2024-01-07T03:57:28;16.00;;;11.33;;
7683;SDS011;3884;48.616;12.872;2024-01-07T03:59:55;16.80;;;13.10;;
7683;SDS011;3884;48.616;12.872;2024-01-07T04:02:23;16.73;;;13.10;;
7683;SDS011;3884;48.616;12.872;2024-01-07T04:04:50;19.33;;;14.23;;
7683;SDS011;3884;48.616;12.872;2024-01-07T04:07:17;19.70;;;13.50;;
7683;SDS011;3884;48.616;12.872;2024-01-07T04:09:46;20.23;;;14.47;;
7683;SDS011;3884;48.616;12.872;2024-01-07T04:12:13;19.03;;;14.33;;
7683;SDS011;3884;48.616;12.872;2024-01-07T04:14:40;17.97;;;14.00;;
7683;SDS011;3884;48.616;12.872;2024-01-07T04:17:09;18.10;;;14.13;;
7683;SDS011;3884;48.616;12.872;2024-01-07T04:19:36;18.77;;;14.80;;
7683;SDS011;3884;48.616;12.872;2024-01-07T04:22:03;19.90;;;14.40;;
7683;SDS011;3884;48.616;12.872;2024-01-07T04:24:30;18.97;;;14.00;;
7683;SDS011;3884;48.616;12.872;2024-01-07T04:26:58;19.70;;;15.13;;
7683;SDS011;3884;48.616;12.872;2024-01-07T04:29:26;19.60;;;14.13;;
7683;SDS011;3884;48.616;12.872;2024-01-07T04:31:52;19.40;;;14.13;;
7683;SDS011;3884;48.616;12.872;2024-01-07T04:34:19;17.30;;;13.93;;
7683;SDS011;3884;48.616;12.872;2024-01-07T04:36:47;18.10;;;13.07;;
7683;SDS011;3884;48.616;12.872;2024-01-07T04:39:14;18.77;;;13.20;;
7683;SDS011;3884;48.616;12.872;2024-01-07T04:41:41;15.57;;;11.80;;
7683;SDS011;3884;48.616;12.872;2024-01-07T04:44:10;16.47;;;12.53;;
7683;SDS011;3884;48.616;12.872;2024-01-07T04:46:37;15.70;;;12.57;;
7683;SDS011;3884;48.616;12.872;2024-01-07T04:49:05;15.63;;;11.63;;
7683;SDS011;3884;48.616;12.872;2024-01-07T04:51:32;15.53;;;11.47;;
7683;SDS011;3884;48.616;12.872;2024-01-07T04:53:59;14.27;;;10.80;;
7683;SDS011;3884;48.616;12.872;2024-01-07T04:56:26;15.30;;;10.90;;
7683;SDS011;3884;48.616;12.872;2024-01-07T04:58:52;14.53;;;11.70;;
7683;SDS011;3884;48.616;12.872;2024-01-07T05:01:21;14.87;;;11.00;;
7683;SDS011;3884;48.616;12.872;2024-01-07T05:03:48;14.83;;;10.90;;
7683;SDS011;3884;48.616;12.872;2024-01-07T05:06:15;13.73;;;10.67;;
7683;SDS011;3884;48.616;12.872;2024-01-07T05:08:42;13.77;;;10.67;;
7683;SDS011;3884;48.616;12.872;2024-01-07T05:11:09;13.40;;;10.63;;
7683;SDS011;3884;48.616;12.872;2024-01-07T05:13:36;14.77;;;11.30;;
7683;SDS011;3884;48.616;12.872;2024-01-07T05:16:03;12.03;;;9.30;;
7683;SDS011;3884;48.616;12.872;2024-01-07T05:18:32;13.67;;;10.23;;
7683;SDS011;3884;48.616;12.872;2024-01-07T05:20:59;11.30;;;9.80;;
7683;SDS011;3884;48.616;12.872;2024-01-07T05:23:27;15.07;;;10.47;;
7683;SDS011;3884;48.616;12.872;2024-01-07T05:25:54;15.10;;;11.43;;
7683;SDS011;3884;48.616;12.872;2024-01-07T05:28:21;12.57;;;9.97;;
7683;SDS011;3884;48.616;12.872;2024-01-07T05:30:48;13.00;;;10.80;;
7683;SDS011;3884;48.616;12.872;2024-01-07T05:33:16;12.70;;;10.67;;
7683;SDS011;3884;48.616;12.872;2024-01-07T05:35:44;14.57;;;12.23;;
7683;SDS011;3884;48.616;12.872;2024-01-07T05:38:11;13.90;;;10.50;;
7683;SDS011;3884;48.616;12.872;2024-01-07T05:40:38;14.37;;;10.40;;
7683;SDS011;3884;48.616;12.872;2024-01-07T05:43:05;12.17;;;10.30;;
7683;SDS011;3884;48.616;12.872;2024-01-07T05:45:32;13.40;;;9.73;;
7683;SDS011;3884;48.616;12.872;2024-01-07T05:47:59;13.73;;;10.57;;
7683;SDS011;3884;48.616;12.872;2024-01-07T05:50:25;12.37;;;10.30;;
7683;SDS011;3884;48.616;12.872;2024-01-07T05:52:54;13.83;;;11.10;;
7683;SDS011;3884;48.616;12.872;2024-01-07T05:55:21;12.83;;;10.67;;
7683;SDS011;3884;48.616;12.872;2024-01-07T05:57:48;12.30;;;10.40;;
7683;SDS011;3884;48.616;12.872;2024-01-07T06:00:15;13.33;;;10.10;;
7683;SDS011;3884;48.616;12.872;2024-01-07T06:02:43;12.00;;;10.17;;
7683;SDS011;3884;48.616;12.872;2024-01-07T06:05:09;15.03;;;11.00;;
7683;SDS011;3884;48.616;12.872;2024-01-07T06:07:36;13.53;;;10.53;;
7683;SDS011;3884;48.616;12.872;2024-01-07T06:10:05;14.10;;;10.83;;
7683;SDS011;3884;48.616;12.872;2024-01-07T06:12:32;14.50;;;10.33;;
7683;SDS011;3884;48.616;12.872;2024-01-07T06:14:59;14.83;;;11.17;;
7683;SDS011;3884;48.616;12.872;2024-01-07T06:17:26;14.17;;;11.40;;
7683;SDS011;3884;48.616;12.872;2024-01-07T06:19:54;14.87;;;12.17;;
7683;SDS011;3884;48.616;12.872;2024-01-07T06:22:21;15.13;;;12.33;;
7683;SDS011;3884;48.616;12.872;2024-01-07T06:24:49;15.20;;;12.00;;
7683;SDS011;3884;48.616;12.872;2024-01-07T06:27:18;14.27;;;11.07;;
7683;SDS011;3884;48.616;12.872;2024-01-07T06:29:44;16.93;;;12.50;;
7683;SDS011;3884;48.616;12.872;2024-01-07T06:32:12;15.13;;;12.03;;
7683;SDS011;3884;48.616;12.872;2024-01-07T06:34:39;14.90;;;11.63;;
7683;SDS011;3884;48.616;12.872;2024-01-07T06:37:06;13.93;;;10.70;;
7683;SDS011;3884;48.616;12.872;2024-01-07T06:39:35;12.53;;;10.63;;
7683;SDS011;3884;48.616;12.872;2024-01-07T06:42:03;14.40;;;10.70;;
7683;SDS011;3884;48.616;12.872;2024-01-07T06:44:32;13.50;;;10.30;;
7683;SDS011;3884;48.616;12.872;2024-01-07T06:46:58;13.80;;;11.57;;
7683;SDS011;3884;48.616;12.872;2024-01-07T06:49:25;14.17;;;10.93;;
7683;SDS011;3884;48.616;12.872;2024-01-07T06:51:52;15.00;;;11.00;;
7683;SDS011;3884;48.616;12.872;2024-01-07T06:54:19;13.77;;;10.47;;
7683;SDS011;3884;48.616;12.872;2024-01-07T06:56:46;13.30;;;10.43;;
7683;SDS011;3884;48.616;12.872;2024-01-07T06:59:14;15.10;;;10.70;;
7683;SDS011;3884;48.616;12.872;2024-01-07T07:01:42;13.70;;;11.17;;
7683;SDS011;3884;48.616;12.872;2024-01-07T07:04:09;15.23;;;11.00;;
7683;SDS011;3884;48.616;12.872;2024-01-07T07:06:36;15.40;;;11.27;;
7683;SDS011;3884;48.616;12.872;2024-01-07T07:09:04;16.13;;;12.00;;
7683;SDS011;3884;48.616;12.872;2024-01-07T07:11:31;15.10;;;10.67;;
7683;SDS011;3884;48.616;12.872;2024-01-07T07:13:59;14.93;;;10.70;;
7683;SDS011;3884;48.616;12.872;2024-01-07T07:16:26;14.80;;;11.40;;
7683;SDS011;3884;48.616;12.872;2024-01-07T07:18:55;13.77;;;10.87;;
7683;SDS011;3884;48.616;12.872;2024-01-07T07:21:22;14.53;;;10.37;;
7683;SDS011;3884;48.616;12.872;2024-01-07T07:23:49;16.07;;;11.87;;
7683;SDS011;3884;48.616;12.872;2024-01-07T07:26:16;13.23;;;10.23;;
7683;SDS011;3884;48.616;12.872;2024-01-07T07:28:43;24.73;;;17.63;;
7683;SDS011;3884;48.616;12.872;2024-01-07T07:31:10;22.77;;;17.93;;
7683;SDS011;3884;48.616;12.872;2024-01-07T07:33:38;19.70;;;15.03;;
7683;SDS011;3884;48.616;12.872;2024-01-07T07:36:07;21.47;;;15.33;;
7683;SDS011;3884;48.616;12.872;2024-01-07T07:38:35;30.67;;;21.27;;
7683;SDS011;3884;48.616;12.872;2024-01-07T07:41:02;21.97;;;16.33;;
7683;SDS011;3884;48.616;12.872;2024-01-07T07:43:29;31.10;;;21.47;;
7683;SDS011;3884;48.616;12.872;2024-01-07T07:45:56;36.90;;;24.73;;
7683;SDS011;3884;48.616;12.872;2024-01-07T07:48:23;29.90;;;21.00;;
7683;SDS011;3884;48.616;12.872;2024-01-07T07:50:51;19.87;;;15.00;;
7683;SDS011;3884;48.616;12.872;2024-01-07T07:53:20;16.30;;;12.73;;
7683;SDS011;3884;48.616;12.872;2024-01-07T07:55:47;20.87;;;16.13;;
7683;SDS011;3884;48.616;12.872;2024-01-07T07:58:15;20.03;;;15.00;;
7683;SDS011;3884;48.616;12.872;2024-01-07T08:00:41;18.53;;;13.67;;
7683;SDS011;3884;48.616;12.872;2024-01-07T08:03:09;19.30;;;13.67;;
7683;SDS011;3884;48.616;12.872;2024-01-07T08:05:36;30.90;;;27.33;;
7683;SDS011;3884;48.616;12.872;2024-01-07T08:08:04;21.67;;;15.27;;
7683;SDS011;3884;48.616;12.872;2024-01-07T08:10:32;20.70;;;15.43;;
7683;SDS011;3884;48.616;12.872;2024-01-07T08:13:00;18.33;;;14.03;;
7683;SDS011;3884;48.616;12.872;2024-01-07T08:15:27;23.17;;;16.87;;
7683;SDS011;3884;48.616;12.872;2024-01-07T08:17:54;24.17;;;16.23;;
7683;SDS011;3884;48.616;12.872;2024-01-07T08:20:21;24.40;;;17.27;;
7683;SDS011;3884;48.616;12.872;2024-01-07T08:22:47;22.03;;;16.23;;
7683;SDS011;3884;48.616;12.872;2024-01-07T08:25:15;22.97;;;17.27;;
7683;SDS011;3884;48.616;12.872;2024-01-07T08:27:44;24.00;;;16.90;;
7683;SDS011;3884;48.616;12.872;2024-01-07T08:30:11;24.40;;;16.33;;
7683;SDS011;3884;48.616;12.872;2024-01-07T08:32:38;25.17;;;17.37;;
7683;SDS011;3884;48.616;12.872;2024-01-07T08:35:05;23.33;;;16.23;;
7683;SDS011;3884;48.616;12.872;2024-01-07T08:37:33;24.67;;;16.83;;
7683;SDS011;3884;48.616;12.872;2024-01-07T08:39:59;24.60;;;17.43;;
7683;SDS011;3884;48.616;12.872;2024-01-07T08:42:26;25.97;;;17.17;;
7683;SDS011;3884;48.616;12.872;2024-01-07T08:44:56;23.60;;;16.53;;
7683;SDS011;3884;48.616;12.872;2024-01-07T08:47:25;24.20;;;16.63;;
7683;SDS011;3884;48.616;12.872;2024-01-07T08:49:53;22.67;;;16.43;;
7683;SDS011;3884;48.616;12.872;2024-01-07T08:52:20;23.97;;;16.40;;
7683;SDS011;3884;48.616;12.872;2024-01-07T08:54:47;23.90;;;16.70;;
7683;SDS011;3884;48.616;12.872;2024-01-07T08:57:14;24.00;;;17.73;;
7683;SDS011;3884;48.616;12.872;2024-01-07T08:59:41;24.43;;;17.30;;
7683;SDS011;3884;48.616;12.872;2024-01-07T09:02:09;25.17;;;16.57;;
7683;SDS011;3884;48.616;12.872;2024-01-07T09:04:36;25.83;;;17.53;;
7683;SDS011;3884;48.616;12.872;2024-01-07T09:07:03;22.37;;;16.53;;
7683;SDS011;3884;48.616;12.872;2024-01-07T09:09:30;23.23;;;16.70;;
7683;SDS011;3884;48.616;12.872;2024-01-07T09:11:57;21.87;;;15.90;;
7683;SDS011;3884;48.616;12.872;2024-01-07T09:14:25;24.70;;;16.70;;
7683;SDS011;3884;48.616;12.872;2024-01-07T09:16:52;24.20;;;16.70;;
7683;SDS011;3884;48.616;12.872;2024-01-07T09:19:21;23.77;;;16.47;;
7683;SDS011;3884;48.616;12.872;2024-01-07T09:21:48;20.87;;;14.87;;
7683;SDS011;3884;48.616;12.872;2024-01-07T09:24:15;22.50;;;16.17;;
7683;SDS011;3884;48.616;12.872;2024-01-07T09:26:43;26.70;;;18.93;;
7683;SDS011;3884;48.616;12.872;2024-01-07T09:29:11;20.77;;;14.90;;
7683;SDS011;3884;48.616;12.872;2024-01-07T09:31:39;21.70;;;14.60;;
7683;SDS011;3884;48.616;12.872;2024-01-07T09:34:06;24.97;;;17.47;;
7683;SDS011;3884;48.616;12.872;2024-01-07T09:36:34;75.97;;;51.83;;
7683;SDS011;3884;48.616;12.872;2024-01-07T09:39:01;19.37;;;14.30;;
7683;SDS011;3884;48.616;12.872;2024-01-07T09:41:30;14.50;;;12.37;;
7683;SDS011;3884;48.616;12.872;2024-01-07T09:43:57;15.70;;;14.10;;
7683;SDS011;3884;48.616;12.872;2024-01-07T09:46:25;18.63;;;16.77;;
7683;SDS011;3884;48.616;12.872;2024-01-07T09:48:55;14.50;;;11.97;;
7683;SDS011;3884;48.616;12.872;2024-01-07T09:51:22;12.43;;;10.07;;
7683;SDS011;3884;48.616;12.872;2024-01-07T09:53:53;12.27;;;9.77;;
7683;SDS011;3884;48.616;12.872;2024-01-07T09:56:26;11.63;;;10.07;;
7683;SDS011;3884;48.616;12.872;2024-01-07T09:59:00;13.63;;;12.03;;
7683;SDS011;3884;48.616;12.872;2024-01-07T10:01:27;11.93;;;9.00;;
7683;SDS011;3884;48.616;12.872;2024-01-07T10:03:54;12.67;;;9.70;;
7683;SDS011;3884;48.616;12.872;2024-01-07T10:06:22;11.17;;;9.20;;
7683;SDS011;3884;48.616;12.872;2024-01-07T10:08:49;10.30;;;8.43;;
7683;SDS011;3884;48.616;12.872;2024-01-07T10:11:17;11.97;;;8.23;;
7683;SDS011;3884;48.616;12.872;2024-01-07T10:13:45;10.27;;;8.23;;
7683;SDS011;3884;48.616;12.872;2024-01-07T10:16:13;9.03;;;7.43;;
7683;SDS011;3884;48.616;12.872;2024-01-07T10:18:41;9.77;;;7.67;;
7683;SDS011;3884;48.616;12.872;2024-01-07T10:21:08;9.53;;;6.87;;
7683;SDS011;3884;48.616;12.872;2024-01-07T10:23:35;8.97;;;7.10;;
7683;SDS011;3884;48.616;12.872;2024-01-07T10:26:06;8.33;;;7.17;;
7683;SDS011;3884;48.616;12.872;2024-01-07T10:28:33;8.40;;;7.07;;
7683;SDS011;3884;48.616;12.872;2024-01-07T10:31:00;8.70;;;7.40;;
7683;SDS011;3884;48.616;12.872;2024-01-07T10:33:30;8.93;;;7.50;;
7683;SDS011;3884;48.616;12.872;2024-01-07T10:36:00;12.70;;;9.90;;
7683;SDS011;3884;48.616;12.872;2024-01-07T10:38:30;9.93;;;8.17;;
7683;SDS011;3884;48.616;12.872;2024-01-07T10:40:59;9.50;;;8.27;;
7683;SDS011;3884;48.616;12.872;2024-01-07T10:43:28;10.83;;;8.27;;
7683;SDS011;3884;48.616;12.872;2024-01-07T10:45:56;10.30;;;8.07;;
7683;SDS011;3884;48.616;12.872;2024-01-07T10:48:27;11.37;;;9.47;;
7683;SDS011;3884;48.616;12.872;2024-01-07T10:50:57;11.03;;;9.30;;
7683;SDS011;3884;48.616;12.872;2024-01-07T10:53:27;8.70;;;7.80;;
7683;SDS011;3884;48.616;12.872;2024-01-07T10:55:59;9.33;;;8.20;;
7683;SDS011;3884;48.616;12.872;2024-01-07T10:58:30;10.43;;;7.87;;
7683;SDS011;3884;48.616;12.872;2024-01-07T11:00:59;9.83;;;7.80;;
7683;SDS011;3884;48.616;12.872;2024-01-07T11:03:31;9.27;;;7.67;;
7683;SDS011;3884;48.616;12.872;2024-01-07T11:06:06;10.03;;;7.93;;
7683;SDS011;3884;48.616;12.872;2024-01-07T11:08:39;13.07;;;10.73;;
7683;SDS011;3884;48.616;12.872;2024-01-07T11:11:12;89.30;;;56.67;;
7683;SDS011;3884;48.616;12.872;2024-01-07T11:13:43;26.17;;;19.17;;
7683;SDS011;3884;48.616;12.872;2024-01-07T11:16:10;15.00;;;13.37;;
7683;SDS011;3884;48.616;12.872;2024-01-07T11:18:51;28.63;;;18.40;;
7683;SDS011;3884;48.616;12.872;2024-01-07T11:21:22;176.53;;;95.27;;
7683;SDS011;3884;48.616;12.872;2024-01-07T11:23:50;180.33;;;99.63;;
7683;SDS011;3884;48.616;12.872;2024-01-07T11:26:30;14.07;;;11.67;;
7683;SDS011;3884;48.616;12.872;2024-01-07T11:35:21;12.20;;;10.50;;
7683;SDS011;3884;48.616;12.872;2024-01-07T11:38:14;14.37;;;12.03;;
7683;SDS011;3884;48.616;12.872;2024-01-07T11:40:55;12.27;;;10.90;;
7683;SDS011;3884;48.616;12.872;2024-01-07T12:03:39;9.67;;;7.90;;
7683;SDS011;3884;48.616;12.872;2024-01-07T12:06:07;9.93;;;8.07;;
7683;SDS011;3884;48.616;12.872;2024-01-07T12:08:47;16.30;;;14.00;;
7683;SDS011;3884;48.616;12.872;2024-01-07T12:11:28;9.50;;;8.33;;
7683;SDS011;3884;48.616;12.872;2024-01-07T12:13:55;10.03;;;9.03;;
7683;SDS011;3884;48.616;12.872;2024-01-07T12:16:23;9.00;;;8.13;;
7683;SDS011;3884;48.616;12.872;2024-01-07T12:18:51;11.27;;;8.40;;
7683;SDS011;3884;48.616;12.872;2024-01-07T12:21:18;9.50;;;8.13;;
7683;SDS011;3884;48.616;12.872;2024-01-07T12:23:48;8.77;;;7.87;;
7683;SDS011;3884;48.616;12.872;2024-01-07T12:26:16;7.63;;;6.90;;
7683;SDS011;3884;48.616;12.872;2024-01-07T12:28:44;7.67;;;6.97;;
7683;SDS011;3884;48.616;12.872;2024-01-07T12:31:17;9.73;;;7.33;;
7683;SDS011;3884;48.616;12.872;2024-01-07T12:33:45;8.13;;;6.67;;
7683;SDS011;3884;48.616;12.872;2024-01-07T12:36:13;7.60;;;6.23;;
7683;SDS011;3884;48.616;12.872;2024-01-07T12:38:41;9.53;;;8.10;;
7683;SDS011;3884;48.616;12.872;2024-01-07T12:41:08;9.30;;;8.33;;
7683;SDS011;3884;48.616;12.872;2024-01-07T12:43:36;8.33;;;7.50;;
7683;SDS011;3884;48.616;12.872;2024-01-07T12:46:03;9.57;;;7.77;;
7683;SDS011;3884;48.616;12.872;2024-01-07T12:48:30;8.60;;;7.40;;
7683;SDS011;3884;48.616;12.872;2024-01-07T12:50:57;10.83;;;7.80;;
7683;SDS011;3884;48.616;12.872;2024-01-07T12:53:26;9.30;;;8.20;;
7683;SDS011;3884;48.616;12.872;2024-01-07T12:55:53;10.63;;;9.13;;
7683;SDS011;3884;48.616;12.872;2024-01-07T12:58:20;10.30;;;8.70;;
7683;SDS011;3884;48.616;12.872;2024-01-07T13:00:47;10.43;;;9.33;;
7683;SDS011;3884;48.616;12.872;2024-01-07T13:03:14;10.10;;;9.10;;
7683;SDS011;3884;48.616;12.872;2024-01-07T13:05:43;9.43;;;7.50;;
7683;SDS011;3884;48.616;12.872;2024-01-07T13:08:11;9.70;;;8.63;;
7683;SDS011;3884;48.616;12.872;2024-01-07T13:10:40;7.97;;;7.10;;
7683;SDS011;3884;48.616;12.872;2024-01-07T13:13:07;9.43;;;7.53;;
7683;SDS011;3884;48.616;12.872;2024-01-07T13:15:35;8.07;;;6.90;;
7683;SDS011;3884;48.616;12.872;2024-01-07T13:18:02;15.60;;;8.63;;
7683;SDS011;3884;48.616;12.872;2024-01-07T13:20:29;110.90;;;64.97;;
7683;SDS011;3884;48.616;12.872;2024-01-07T13:22:56;32.87;;;22.90;;
7683;SDS011;3884;48.616;12.872;2024-01-07T13:25:23;67.47;;;53.90;;
7683;SDS011;3884;48.616;12.872;2024-01-07T13:27:51;12.33;;;10.80;;
7683;SDS011;3884;48.616;12.872;2024-01-07T13:30:18;11.37;;;9.37;;
7683;SDS011;3884;48.616;12.872;2024-01-07T13:32:45;13.50;;;10.13;;
7683;SDS011;3884;48.616;12.872;2024-01-07T13:35:14;9.90;;;8.70;;
7683;SDS011;3884;48.616;12.872;2024-01-07T13:37:41;9.30;;;7.83;;
7683;SDS011;3884;48.616;12.872;2024-01-07T13:40:09;12.07;;;10.77;;
7683;SDS011;3884;48.616;12.872;2024-01-07T13:42:38;9.80;;;8.13;;
7683;SDS011;3884;48.616;12.872;2024-01-07T13:45:07;8.30;;;7.40;;
7683;SDS011;3884;48.616;12.872;2024-01-07T13:47:35;7.87;;;7.07;;
7683;SDS011;3884;48.616;12.872;2024-01-07T13:50:02;9.00;;;8.10;;
7683;SDS011;3884;48.616;12.872;2024-01-07T13:52:29;12.00;;;10.70;;
7683;SDS011;3884;48.616;12.872;2024-01-07T13:54:56;15.07;;;12.43;;
7683;SDS011;3884;48.616;12.872;2024-01-07T13:57:23;13.97;;;11.93;;
7683;SDS011;3884;48.616;12.872;2024-01-07T13:59:51;10.10;;;9.10;;
7683;SDS011;3884;48.616;12.872;2024-01-07T14:02:20;9.47;;;8.33;;
7683;SDS011;3884;48.616;12.872;2024-01-07T14:04:47;10.57;;;7.90;;
7683;SDS011;3884;48.616;12.872;2024-01-07T14:07:16;9.20;;;8.30;;
7683;SDS011;3884;48.616;12.872;2024-01-07T14:09:43;9.67;;;7.73;;
7683;SDS011;3884;48.616;12.872;2024-01-07T14:12:11;10.63;;;9.20;;
7683;SDS011;3884;48.616;12.872;2024-01-07T14:14:38;9.40;;;8.40;;
7683;SDS011;3884;48.616;12.872;2024-01-07T14:17:05;9.73;;;8.73;;
7683;SDS011;3884;48.616;12.872;2024-01-07T14:19:35;10.17;;;8.70;;
7683;SDS011;3884;48.616;12.872;2024-01-07T14:22:04;9.77;;;8.73;;
7683;SDS011;3884;48.616;12.872;2024-01-07T14:24:31;10.43;;;9.33;;
7683;SDS011;3884;48.616;12.872;2024-01-07T14:26:59;12.00;;;9.83;;
7683;SDS011;3884;48.616;12.872;2024-01-07T14:29:26;9.40;;;8.30;;
7683;SDS011;3884;48.616;12.872;2024-01-07T14:31:54;10.53;;;9.30;;
7683;SDS011;3884;48.616;12.872;2024-01-07T14:34:22;12.37;;;10.80;;
7683;SDS011;3884;48.616;12.872;2024-01-07T14:36:54;14.30;;;12.70;;
7683;SDS011;3884;48.616;12.872;2024-01-07T14:39:22;10.67;;;9.57;;
7683;SDS011;3884;48.616;12.872;2024-01-07T14:41:49;10.87;;;9.77;;
7683;SDS011;3884;48.616;12.872;2024-01-07T14:44:16;9.63;;;8.63;;
7683;SDS011;3884;48.616;12.872;2024-01-07T14:46:43;10.50;;;8.73;;
7683;SDS011;3884;48.616;12.872;2024-01-07T14:49:10;11.07;;;9.40;;
7683;SDS011;3884;48.616;12.872;2024-01-07T14:51:37;10.30;;;9.20;;
7683;SDS011;3884;48.616;12.872;2024-01-07T14:54:07;10.73;;;8.90;;
7683;SDS011;3884;48.616;12.872;2024-01-07T14:56:34;11.53;;;10.33;;
7683;SDS011;3884;48.616;12.872;2024-01-07T14:59:04;12.10;;;10.80;;
7683;SDS011;3884;48.616;12.872;2024-01-07T15:01:31;13.70;;;11.90;;
7683;SDS011;3884;48.616;12.872;2024-01-07T15:03:59;16.97;;;15.17;;
7683;SDS011;3884;48.616;12.872;2024-01-07T15:06:27;13.27;;;11.87;;
7683;SDS011;3884;48.616;12.872;2024-01-07T15:08:54;15.10;;;12.87;;
7683;SDS011;3884;48.616;12.872;2024-01-07T15:11:25;16.23;;;13.43;;